createdAt,value
2024-02-17T00:00:30.759Z,30.10
2024-02-17T00:03:24.628Z,28.70
2024-02-17T00:05:53.548Z,32.30
2024-02-17T00:08:21.886Z,27.70
2024-02-17T00:10:50.104Z,31.70
2024-02-17T00:13:18.421Z,27.80
2024-02-17T00:15:48.214Z,27.60
2024-02-17T00:18:16.720Z,27.70
2024-02-17T00:20:45.108Z,24.20
2024-02-17T00:23:13.302Z,22.20
2024-02-17T00:25:41.517Z,28.00
2024-02-17T00:28:09.752Z,29.80
2024-02-17T00:30:38.311Z,24.70
2024-02-17T00:33:07.151Z,24.70
2024-02-17T00:35:35.411Z,28.50
2024-02-17T00:38:03.936Z,24.40
2024-02-17T00:40:32.155Z,28.90
2024-02-17T00:43:00.369Z,25.20
2024-02-17T00:45:28.603Z,24.00
2024-02-17T00:47:56.946Z,27.60
2024-02-17T00:50:25.228Z,19.90
2024-02-17T00:52:54.263Z,27.00
2024-02-17T00:57:50.572Z,26.50
2024-02-17T01:00:19.072Z,27.30
2024-02-17T01:02:47.352Z,25.70
2024-02-17T01:05:15.864Z,23.20
2024-02-17T01:10:12.701Z,23.10
2024-02-17T01:12:41.674Z,24.10
2024-02-17T01:15:10.929Z,34.80
2024-02-17T01:17:39.315Z,32.80
2024-02-17T01:20:08.621Z,32.60
2024-02-17T01:22:36.910Z,28.40
2024-02-17T01:25:05.634Z,29.00
2024-02-17T01:27:34.190Z,25.80
2024-02-17T01:30:02.751Z,32.30
2024-02-17T01:32:31.177Z,27.10
2024-02-17T01:34:59.453Z,30.40
2024-02-17T01:37:28.141Z,31.20
2024-02-17T01:39:56.359Z,35.00
2024-02-17T01:42:24.508Z,36.50
2024-02-17T01:44:52.895Z,40.30
2024-02-17T01:47:22.463Z,35.40
2024-02-17T01:49:51.564Z,32.40
2024-02-17T01:52:20.459Z,34.40
2024-02-17T01:54:48.820Z,40.60
2024-02-17T01:57:17.673Z,31.30
2024-02-17T01:59:45.932Z,28.70
2024-02-17T02:02:14.496Z,26.90
2024-02-17T02:04:42.904Z,30.00
2024-02-17T02:07:11.187Z,29.00
2024-02-17T02:09:39.679Z,29.10
2024-02-17T02:12:08.455Z,26.20
2024-02-17T02:14:36.758Z,25.80
2024-02-17T02:17:04.980Z,30.20
2024-02-17T02:19:33.416Z,24.80
2024-02-17T02:22:01.729Z,22.90
2024-02-17T02:24:30.896Z,25.10
2024-02-17T02:26:59.267Z,29.40
2024-02-17T02:29:27.685Z,25.90
2024-02-17T02:31:56.913Z,24.50
2024-02-17T02:34:25.205Z,26.50
2024-02-17T02:36:53.473Z,28.60
2024-02-17T02:39:21.733Z,28.90
2024-02-17T02:41:50.595Z,30.30
2024-02-17T02:44:18.816Z,29.70
2024-02-17T02:46:47.033Z,25.50
2024-02-17T02:49:15.328Z,25.80
2024-02-17T02:51:43.837Z,28.10
2024-02-17T02:54:12.903Z,29.20
2024-02-17T02:56:41.320Z,24.30
2024-02-17T02:59:09.545Z,25.70
2024-02-17T03:01:37.800Z,28.90
2024-02-17T03:04:06.167Z,26.10
2024-02-17T03:06:36.113Z,33.90
2024-02-17T03:09:04.629Z,27.20
2024-02-17T03:11:34.202Z,27.90
2024-02-17T03:14:02.571Z,26.20
2024-02-17T03:16:31.007Z,27.80
2024-02-17T03:18:59.384Z,26.10
2024-02-17T03:21:27.871Z,24.30
2024-02-17T03:23:56.155Z,26.10
2024-02-17T03:26:24.381Z,24.30
2024-02-17T03:28:52.898Z,28.00
2024-02-17T03:31:23.132Z,27.70
2024-02-17T03:33:56.234Z,22.10
2024-02-17T03:36:25.013Z,21.90
2024-02-17T03:38:53.403Z,20.10
2024-02-17T03:41:21.677Z,26.90
2024-02-17T03:43:49.897Z,26.70
2024-02-17T03:46:18.065Z,22.30
2024-02-17T03:48:46.552Z,23.10
2024-02-17T03:51:15.258Z,22.60
2024-02-17T03:53:43.524Z,26.50
2024-02-17T03:56:15.579Z,24.40
2024-02-17T03:58:44.384Z,21.70
2024-02-17T04:01:12.710Z,26.00
2024-02-17T04:03:41.077Z,23.00
2024-02-17T04:06:10.030Z,20.70
2024-02-17T04:11:06.722Z,22.40
2024-02-17T04:13:35.117Z,22.70
2024-02-17T04:16:03.436Z,22.00
2024-02-17T04:18:31.848Z,20.20
2024-02-17T04:21:00.178Z,27.60
2024-02-17T04:23:28.409Z,25.10
2024-02-17T04:25:57.822Z,21.80
2024-02-17T04:28:26.068Z,20.10
2024-02-17T04:30:54.923Z,24.30
2024-02-17T04:33:23.388Z,23.20
2024-02-17T04:35:53.009Z,21.60
2024-02-17T04:38:21.846Z,24.50
2024-02-17T04:43:18.183Z,24.40
2024-02-17T04:45:46.517Z,26.60
2024-02-17T04:48:14.893Z,30.90
2024-02-17T04:50:43.838Z,23.80
2024-02-17T04:53:12.068Z,23.00
2024-02-17T04:55:40.292Z,25.80
2024-02-17T04:58:08.505Z,25.40
2024-02-17T05:00:36.820Z,24.10
2024-02-17T05:03:05.374Z,24.20
2024-02-17T05:05:33.806Z,23.00
2024-02-17T05:08:02.108Z,24.00
2024-02-17T05:10:30.505Z,19.70
2024-02-17T05:12:58.867Z,21.10
2024-02-17T05:15:27.869Z,21.80
2024-02-17T05:17:56.088Z,24.00
2024-02-17T05:20:24.299Z,18.60
2024-02-17T05:22:52.405Z,22.60
2024-02-17T05:25:20.731Z,24.00
2024-02-17T05:27:49.069Z,21.20
2024-02-17T05:30:18.753Z,20.80
2024-02-17T05:32:47.428Z,22.60
2024-02-17T05:35:15.940Z,23.40
2024-02-17T05:37:44.810Z,19.50
2024-02-17T05:40:13.889Z,17.80
2024-02-17T05:42:42.221Z,21.50
2024-02-17T05:45:11.146Z,20.70
2024-02-17T05:47:39.858Z,19.10
2024-02-17T05:50:08.728Z,18.00
2024-02-17T05:55:05.602Z,19.70
2024-02-17T05:57:33.776Z,21.70
2024-02-17T06:00:02.248Z,16.50
2024-02-17T06:02:35.688Z,17.90
2024-02-17T06:05:04.526Z,15.90
2024-02-17T06:10:01.154Z,19.60
2024-02-17T06:12:29.485Z,19.90
2024-02-17T06:14:57.680Z,20.00
2024-02-17T06:17:28.951Z,19.30
2024-02-17T06:20:15.909Z,19.10
2024-02-17T06:22:44.245Z,18.60
2024-02-17T06:25:12.501Z,17.00
2024-02-17T06:27:40.823Z,17.80
2024-02-17T06:30:15.140Z,16.20
2024-02-17T06:32:43.565Z,16.20
2024-02-17T06:35:12.250Z,14.80
2024-02-17T06:37:41.968Z,16.20
2024-02-17T06:40:10.699Z,15.70
2024-02-17T06:42:38.860Z,16.60
2024-02-17T06:45:07.717Z,23.40
2024-02-17T06:47:35.903Z,19.90
2024-02-17T06:50:04.706Z,24.10
2024-02-17T06:52:33.209Z,24.10
2024-02-17T06:55:01.323Z,24.00
2024-02-17T06:57:29.618Z,20.60
2024-02-17T06:59:57.982Z,28.90
2024-02-17T07:02:28.213Z,23.90
2024-02-17T07:04:57.829Z,24.70
2024-02-17T07:07:26.233Z,36.50
2024-02-17T07:09:54.470Z,35.30
2024-02-17T07:12:22.710Z,35.30
2024-02-17T07:14:52.204Z,52.50
2024-02-17T07:17:20.521Z,39.00
2024-02-17T07:19:48.796Z,41.10
2024-02-17T07:22:17.062Z,61.80
2024-02-17T07:24:45.242Z,46.30
2024-02-17T07:27:13.574Z,63.00
2024-02-17T07:29:43.426Z,35.40
2024-02-17T07:32:12.368Z,61.30
2024-02-17T07:34:43.447Z,39.90
2024-02-17T07:37:11.716Z,63.50
2024-02-17T07:39:42.220Z,68.10
2024-02-17T07:42:10.580Z,57.60
2024-02-17T07:44:38.971Z,62.60
2024-02-17T07:47:07.400Z,73.90
2024-02-17T07:49:36.005Z,66.80
2024-02-17T07:52:04.936Z,61.80
2024-02-17T07:54:33.234Z,45.80
2024-02-17T07:57:01.479Z,34.60
2024-02-17T07:59:29.698Z,42.70
2024-02-17T08:01:57.851Z,39.30
2024-02-17T08:04:26.276Z,52.60
2024-02-17T08:06:54.635Z,42.40
2024-02-17T08:09:22.906Z,51.70
2024-02-17T08:11:56.066Z,39.80
2024-02-17T08:14:25.619Z,40.80
2024-02-17T08:16:55.163Z,39.80
2024-02-17T08:19:23.537Z,54.70
2024-02-17T08:21:52.031Z,36.20
2024-02-17T08:24:20.293Z,46.50
2024-02-17T08:26:48.550Z,86.10
2024-02-17T08:29:16.775Z,48.40
2024-02-17T08:31:54.349Z,48.20
2024-02-17T08:34:22.686Z,53.20
2024-02-17T08:36:50.991Z,55.40
2024-02-17T08:39:19.712Z,60.60
2024-02-17T08:41:48.017Z,51.80
2024-02-17T08:44:16.230Z,53.60
2024-02-17T08:46:45.753Z,50.90
2024-02-17T08:49:14.105Z,47.60
2024-02-17T08:51:42.703Z,36.30
2024-02-17T08:54:11.294Z,39.30
2024-02-17T08:56:39.945Z,44.00
2024-02-17T08:59:08.067Z,40.50
2024-02-17T09:01:36.342Z,47.20
2024-02-17T09:04:05.078Z,46.20
2024-02-17T09:09:02.145Z,44.60
2024-02-17T09:11:31.109Z,42.30
2024-02-17T09:16:28.713Z,36.50
2024-02-17T09:18:56.914Z,32.10
2024-02-17T09:21:25.296Z,38.70
2024-02-17T09:23:53.574Z,46.60
2024-02-17T09:26:22.897Z,68.80
2024-02-17T09:28:51.323Z,51.10
2024-02-17T09:31:19.636Z,67.20
2024-02-17T09:33:47.857Z,63.10
2024-02-17T09:36:16.342Z,53.60
2024-02-17T09:38:44.709Z,37.10
2024-02-17T09:41:13.122Z,39.50
2024-02-17T09:43:42.343Z,30.70
2024-02-17T09:46:13.537Z,35.60
2024-02-17T09:48:42.375Z,32.40
2024-02-17T09:53:39.845Z,33.00
2024-02-17T09:58:38.226Z,35.10
2024-02-17T10:01:06.585Z,33.30
2024-02-17T10:03:39.629Z,39.70
2024-02-17T10:06:12.665Z,49.20
2024-02-17T10:08:42.124Z,35.40
2024-02-17T10:11:13.449Z,35.50
2024-02-17T10:13:43.569Z,30.40
2024-02-17T10:16:13.505Z,61.30
2024-02-17T10:18:43.306Z,45.00
2024-02-17T10:21:13.336Z,23.80
2024-02-17T10:23:41.561Z,35.80
2024-02-17T10:26:09.698Z,30.40
2024-02-17T10:28:37.807Z,28.00
2024-02-17T10:31:06.022Z,28.00
2024-02-17T10:33:34.531Z,28.30
2024-02-17T10:36:02.971Z,35.90
2024-02-17T10:38:31.697Z,22.50
2024-02-17T10:43:28.342Z,39.90
2024-02-17T10:45:58.428Z,49.70
2024-02-17T10:48:28.156Z,39.40
2024-02-17T10:50:56.522Z,47.20
2024-02-17T10:53:44.210Z,28.30
2024-02-17T10:56:17.197Z,24.40
2024-02-17T10:58:49.386Z,33.60
2024-02-17T11:01:19.611Z,30.60
2024-02-17T11:03:48.453Z,32.90
2024-02-17T11:06:19.016Z,27.70
2024-02-17T11:08:47.681Z,28.20
2024-02-17T11:11:25.957Z,31.30
2024-02-17T11:13:56.189Z,21.00
2024-02-17T11:16:25.478Z,21.90
2024-02-17T11:18:56.922Z,21.40
2024-02-17T11:21:27.255Z,26.60
2024-02-17T11:24:00.383Z,33.50
2024-02-17T11:26:36.849Z,31.30
2024-02-17T11:29:09.658Z,29.90
2024-02-17T11:31:37.778Z,30.60
2024-02-17T11:34:06.298Z,14.30
2024-02-17T11:36:35.710Z,17.50
2024-02-17T11:39:04.883Z,34.00
2024-02-17T11:41:33.667Z,18.70
2024-02-17T11:44:02.738Z,27.40
2024-02-17T11:46:32.022Z,33.50
2024-02-17T11:49:09.352Z,26.50
2024-02-17T11:51:39.553Z,40.50
2024-02-17T11:54:08.050Z,33.10
2024-02-17T11:56:36.976Z,16.70
2024-02-17T11:59:05.458Z,17.40
2024-02-17T12:01:38.536Z,28.30
2024-02-17T12:04:08.460Z,16.10
2024-02-17T12:06:36.972Z,14.20
2024-02-17T12:09:05.363Z,19.60
2024-02-17T12:11:33.717Z,30.90
2024-02-17T12:14:02.519Z,38.50
2024-02-17T12:16:30.928Z,30.10
2024-02-17T12:18:59.665Z,36.00
2024-02-17T12:21:28.560Z,18.00
2024-02-17T12:26:37.477Z,16.90
2024-02-17T12:29:10.400Z,16.60
2024-02-17T12:31:38.615Z,23.70
2024-02-17T12:34:10.255Z,42.80
2024-02-17T12:36:38.717Z,30.60
2024-02-17T12:39:08.195Z,40.30
2024-02-17T12:41:36.619Z,31.40
2024-02-17T12:44:05.185Z,34.50
2024-02-17T12:46:38.100Z,18.90
2024-02-17T12:49:08.551Z,27.00
2024-02-17T12:51:39.572Z,26.80
2024-02-17T12:54:09.269Z,39.90
2024-02-17T12:56:37.484Z,24.10
2024-02-17T12:59:05.696Z,34.30
2024-02-17T13:01:33.925Z,36.70
2024-02-17T13:04:02.350Z,19.10
2024-02-17T13:06:31.265Z,14.80
2024-02-17T13:09:02.018Z,29.30
2024-02-17T13:11:30.752Z,19.60
2024-02-17T13:13:59.031Z,18.90
2024-02-17T13:16:27.853Z,16.60
2024-02-17T13:21:27.722Z,15.50
2024-02-17T13:26:24.746Z,16.20
2024-02-17T13:28:52.977Z,16.80
2024-02-17T13:31:21.351Z,36.90
2024-02-17T13:33:50.060Z,22.30
2024-02-17T13:36:19.249Z,20.30
2024-02-17T13:38:47.664Z,21.40
2024-02-17T13:41:15.896Z,17.20
2024-02-17T13:43:46.387Z,20.10
2024-02-17T13:46:16.749Z,17.20
2024-02-17T13:48:45.169Z,18.10
2024-02-17T13:51:13.964Z,14.00
2024-02-17T13:53:43.001Z,14.50
2024-02-17T13:56:11.114Z,18.60
2024-02-17T13:58:39.454Z,21.30
2024-02-17T14:01:08.933Z,21.40
2024-02-17T14:03:37.690Z,17.60
2024-02-17T14:06:06.164Z,19.10
2024-02-17T14:08:34.325Z,22.60
2024-02-17T14:11:02.587Z,19.30
2024-02-17T14:13:30.870Z,17.70
2024-02-17T14:15:59.172Z,19.90
2024-02-17T14:18:29.166Z,20.50
2024-02-17T14:21:02.478Z,20.10
2024-02-17T14:23:30.671Z,19.00
2024-02-17T14:25:59.020Z,29.20
2024-02-17T14:28:27.888Z,30.60
2024-02-17T14:30:56.196Z,29.40
2024-02-17T14:33:24.787Z,24.20
2024-02-17T14:35:53.082Z,21.80
2024-02-17T14:38:21.310Z,20.80
2024-02-17T14:40:49.532Z,19.50
2024-02-17T14:43:17.806Z,26.20
2024-02-17T14:45:46.893Z,26.20
2024-02-17T14:48:15.322Z,22.30
2024-02-17T14:50:44.929Z,20.70
2024-02-17T14:53:13.233Z,23.20
2024-02-17T14:55:41.470Z,19.60
2024-02-17T14:58:10.083Z,19.00
2024-02-17T15:00:43.183Z,21.00
2024-02-17T15:03:12.215Z,23.90
2024-02-17T15:05:40.561Z,31.80
2024-02-17T15:08:09.887Z,28.40
2024-02-17T15:10:38.067Z,67.40
2024-02-17T15:13:06.644Z,25.40
2024-02-17T15:15:35.088Z,24.70
2024-02-17T15:18:05.672Z,23.30
2024-02-17T15:20:34.297Z,20.90
2024-02-17T15:23:02.512Z,21.30
2024-02-17T15:25:30.741Z,43.30
2024-02-17T15:28:01.234Z,38.20
2024-02-17T15:30:29.833Z,32.30
2024-02-17T15:32:58.246Z,25.90
2024-02-17T15:35:26.434Z,23.70
2024-02-17T15:37:54.651Z,25.60
2024-02-17T15:40:22.866Z,25.50
2024-02-17T15:42:52.560Z,27.00
2024-02-17T15:45:20.964Z,27.30
2024-02-17T15:47:53.510Z,22.90
2024-02-17T15:50:21.824Z,31.90
2024-02-17T15:52:50.490Z,33.40
2024-02-17T15:55:19.028Z,29.00
2024-02-17T15:57:51.687Z,34.40
2024-02-17T16:00:23.289Z,32.30
2024-02-17T16:02:53.468Z,29.70
2024-02-17T16:05:21.925Z,28.40
2024-02-17T16:07:50.252Z,18.60
2024-02-17T16:10:18.565Z,24.50
2024-02-17T16:12:48.338Z,21.50
2024-02-17T16:15:19.699Z,51.50
2024-02-17T16:17:52.883Z,30.40
2024-02-17T16:20:21.306Z,31.80
2024-02-17T16:22:49.873Z,31.80
2024-02-17T16:25:18.429Z,30.40
2024-02-17T16:27:46.711Z,90.50
2024-02-17T16:30:15.065Z,102.60
2024-02-17T16:32:43.452Z,156.20
2024-02-17T16:35:12.527Z,123.70
2024-02-17T16:37:42.593Z,168.30
2024-02-17T16:40:11.491Z,77.50
2024-02-17T16:45:08.343Z,89.70
2024-02-17T16:47:37.484Z,85.70
2024-02-17T16:50:08.249Z,103.20
2024-02-17T16:52:36.682Z,80.70
2024-02-17T16:55:05.643Z,51.70
2024-02-17T16:57:35.041Z,28.70
2024-02-17T17:00:04.348Z,25.10
2024-02-17T17:02:32.595Z,20.70
2024-02-17T17:05:02.353Z,21.50
2024-02-17T17:07:30.908Z,25.30
2024-02-17T17:09:59.958Z,35.40
2024-02-17T17:12:28.896Z,46.60
2024-02-17T17:14:57.686Z,34.00
2024-02-17T17:17:26.349Z,31.30
2024-02-17T17:19:55.961Z,42.20
2024-02-17T17:22:35.150Z,32.40
2024-02-17T17:25:11.038Z,41.20
2024-02-17T17:27:39.424Z,44.20
2024-02-17T17:30:12.754Z,36.50
2024-02-17T17:32:42.367Z,34.00
2024-02-17T17:35:11.401Z,38.30
2024-02-17T17:37:39.793Z,31.20
2024-02-17T17:40:10.780Z,28.80
2024-02-17T17:42:48.683Z,30.00
2024-02-17T17:45:25.402Z,38.50
2024-02-17T17:47:53.773Z,38.70
2024-02-17T17:50:25.327Z,40.80
2024-02-17T17:52:54.953Z,39.50
2024-02-17T17:55:24.477Z,32.00
2024-02-17T17:57:52.776Z,46.00
2024-02-17T18:00:22.542Z,75.50
2024-02-17T18:02:52.570Z,84.30
2024-02-17T18:05:20.895Z,50.40
2024-02-17T18:07:49.498Z,73.00
2024-02-17T18:10:18.150Z,84.20
2024-02-17T18:12:46.315Z,52.10
2024-02-17T18:15:14.729Z,41.40
2024-02-17T18:17:44.373Z,40.00
2024-02-17T18:20:13.239Z,120.10
2024-02-17T18:22:41.665Z,94.60
2024-02-17T18:25:10.520Z,90.00
2024-02-17T18:30:08.474Z,67.90
2024-02-17T18:32:37.908Z,69.80
2024-02-17T18:35:07.335Z,110.80
2024-02-17T18:37:35.793Z,168.60
2024-02-17T18:40:06.240Z,111.50
2024-02-17T18:42:35.103Z,88.10
2024-02-17T18:47:31.866Z,48.20
2024-02-17T18:50:00.361Z,47.90
2024-02-17T18:52:30.274Z,57.80
2024-02-17T18:54:58.874Z,68.70
2024-02-17T18:57:27.417Z,72.50
2024-02-17T18:59:55.791Z,34.10
2024-02-17T19:02:24.109Z,39.90
2024-02-17T19:04:52.346Z,45.40
2024-02-17T19:07:20.565Z,35.20
2024-02-17T19:09:48.869Z,45.00
2024-02-17T19:12:17.238Z,52.60
2024-02-17T19:14:49.334Z,59.90
2024-02-17T19:17:18.181Z,50.10
2024-02-17T19:19:46.468Z,25.60
2024-02-17T19:22:15.226Z,36.40
2024-02-17T19:24:43.698Z,38.40
2024-02-17T19:27:12.031Z,39.40
2024-02-17T19:29:40.253Z,38.90
2024-02-17T19:32:08.481Z,72.00
2024-02-17T19:34:36.716Z,50.00
2024-02-17T19:37:05.105Z,31.00
2024-02-17T19:39:33.619Z,33.70
2024-02-17T19:42:02.164Z,46.70
2024-02-17T19:44:30.395Z,53.30
2024-02-17T19:46:58.505Z,50.40
2024-02-17T19:49:26.916Z,43.80
2024-02-17T19:51:55.322Z,39.50
2024-02-17T19:54:23.687Z,30.30
2024-02-17T19:56:51.879Z,31.40
2024-02-17T19:59:20.218Z,36.80
2024-02-17T20:01:48.619Z,32.90
2024-02-17T20:04:17.119Z,36.90
2024-02-17T20:06:45.640Z,30.10
2024-02-17T20:09:14.654Z,27.50
2024-02-17T20:14:11.337Z,20.10
2024-02-17T20:16:39.950Z,20.40
2024-02-17T20:19:09.554Z,18.90
2024-02-17T20:21:39.986Z,20.10
2024-02-17T20:24:08.469Z,23.70
2024-02-17T20:26:36.645Z,21.90
2024-02-17T20:29:04.769Z,23.00
2024-02-17T20:31:32.998Z,20.80
2024-02-17T20:34:01.542Z,20.40
2024-02-17T20:36:29.966Z,20.80
2024-02-17T20:38:58.545Z,22.10
2024-02-17T20:41:26.965Z,27.80
2024-02-17T20:43:55.313Z,25.40
2024-02-17T20:46:23.809Z,21.10
2024-02-17T20:48:52.232Z,21.30
2024-02-17T20:51:20.628Z,19.10
2024-02-17T20:53:48.984Z,20.90
2024-02-17T20:56:17.201Z,32.80
2024-02-17T20:58:45.511Z,23.70
2024-02-17T21:01:13.931Z,19.30
2024-02-17T21:03:42.504Z,37.40
2024-02-17T21:06:11.719Z,35.70
2024-02-17T21:08:40.003Z,18.30
2024-02-17T21:11:09.372Z,20.90
2024-02-17T21:13:37.650Z,18.30
2024-02-17T21:16:06.171Z,20.00
2024-02-17T21:18:34.749Z,24.00
2024-02-17T21:23:31.330Z,23.70
2024-02-17T21:25:59.752Z,21.60
2024-02-17T21:28:28.605Z,19.80
2024-02-17T21:33:25.797Z,20.60
2024-02-17T21:35:54.042Z,22.90
2024-02-17T21:38:22.259Z,24.90
2024-02-17T21:40:50.375Z,21.80
2024-02-17T21:43:18.595Z,23.60
2024-02-17T21:45:50.821Z,20.10
2024-02-17T21:48:19.350Z,25.60
2024-02-17T21:50:47.782Z,27.90
2024-02-17T21:53:15.997Z,28.80
2024-02-17T21:55:46.576Z,22.80
2024-02-17T21:58:16.452Z,21.00
2024-02-17T22:00:45.010Z,19.10
2024-02-17T22:03:13.407Z,21.30
2024-02-17T22:05:41.798Z,24.50
2024-02-17T22:08:10.025Z,20.90
2024-02-17T22:10:38.167Z,21.90
2024-02-17T22:13:06.321Z,23.30
2024-02-17T22:15:34.815Z,24.10
2024-02-17T22:18:03.290Z,20.50
2024-02-17T22:20:31.733Z,22.90
2024-02-17T22:22:59.862Z,22.80
2024-02-17T22:25:28.082Z,24.50
2024-02-17T22:27:56.348Z,23.10
2024-02-17T22:30:24.624Z,21.90
2024-02-17T22:32:52.846Z,24.40
2024-02-17T22:35:21.382Z,22.70
2024-02-17T22:37:50.288Z,23.50
2024-02-17T22:40:23.949Z,20.10
2024-02-17T22:42:53.183Z,21.80
2024-02-17T22:45:21.430Z,22.20
2024-02-17T22:47:50.239Z,21.50
2024-02-17T22:52:46.928Z,23.60
2024-02-17T22:55:16.564Z,19.70
2024-02-17T22:57:44.725Z,20.70
2024-02-17T23:00:22.818Z,25.00
2024-02-17T23:02:52.079Z,23.10
2024-02-17T23:05:24.673Z,20.50
2024-02-17T23:07:54.917Z,27.40
2024-02-17T23:10:23.840Z,20.80
2024-02-17T23:15:20.158Z,27.60
2024-02-17T23:17:48.697Z,21.50
2024-02-17T23:35:22.411Z,18.30
2024-02-17T23:37:50.644Z,24.50
2024-02-17T23:40:20.166Z,21.50
2024-02-17T23:42:48.385Z,18.90
2024-02-17T23:45:16.780Z,32.40
2024-02-17T23:47:45.149Z,20.50
2024-02-17T23:50:13.437Z,22.10
2024-02-17T23:52:41.556Z,19.90
2024-02-17T23:55:10.249Z,23.40
2024-02-17T23:57:39.662Z,21.00
